Time;durP1;ratioP1;P1;durP2;ratioP2;P2;SDS_P1;SDS_P2;PMS_P1;PMS_P2;Temp;Humidity;BMP_temperature;BMP_pressure;BME280_temperature;BME280_humidity;BME280_pressure;Samples;Min_cycle;Max_cycle;Signal;HPM_P1;HPM_P2
2023/01/30 00:01:27;;;;;;;48.05;27.10;;;;;;;;;;4930002;28;99523;-68
2023/01/30 00:03:54;;;;;;;48.15;25.52;;;;;;;;;;4930628;28;98604;-68
2023/01/30 00:06:21;;;;;;;52.03;26.83;;;;;;;;;;4931498;28;99322;-68
2023/01/30 00:08:47;;;;;;;47.42;24.27;;;;;;;;;;4930487;28;99831;-68
2023/01/30 00:11:14;;;;;;;46.75;25.23;;;;;;;;;;4931776;28;98626;-68
2023/01/30 00:13:40;;;;;;;51.63;25.10;;;;;;;;;;4926171;28;99591;-68
2023/01/30 00:16:08;;;;;;;47.70;24.88;;;;;;;;;;4921276;28;99518;-68
2023/01/30 00:18:35;;;;;;;48.00;23.98;;;;;;;;;;4934853;28;98636;-68
2023/01/30 00:21:03;;;;;;;46.33;25.23;;;;;;;;;;4931191;28;100767;-68
2023/01/30 00:23:30;;;;;;;44.35;24.88;;;;;;;;;;4931674;28;98554;-68
2023/01/30 00:25:56;;;;;;;45.00;24.45;;;;;;;;;;4931496;28;99473;-68
2023/01/30 00:28:23;;;;;;;52.67;26.20;;;;;;;;;;4931138;28;99435;-68
2023/01/30 00:30:50;;;;;;;43.30;23.42;;;;;;;;;;4931645;28;98552;-68
2023/01/30 00:33:16;;;;;;;46.35;24.00;;;;;;;;;;4932090;28;99296;-68
2023/01/30 00:35:48;;;;;;;35.90;21.60;;;;;;;;;;4930069;28;99510;-68
2023/01/30 00:38:14;;;;;;;41.92;21.55;;;;;;;;;;4931641;28;97807;-68
2023/01/30 00:40:41;;;;;;;39.63;22.45;;;;;;;;;;4933043;28;98579;-69
2023/01/30 00:48:40;;;;;;;44.38;19.13;;;;;;;;;;4931173;28;100643;-68
2023/01/30 00:51:06;;;;;;;43.08;19.48;;;;;;;;;;4931313;28;98530;-68
2023/01/30 00:53:33;;;;;;;34.17;18.65;;;;;;;;;;4931139;28;99560;-68
2023/01/30 00:55:59;;;;;;;32.00;17.65;;;;;;;;;;4930609;28;99886;-68
2023/01/30 00:58:26;;;;;;;32.88;17.17;;;;;;;;;;4930969;28;98541;-68
2023/01/30 01:00:52;;;;;;;38.90;16.55;;;;;;;;;;4931234;28;101740;-68
2023/01/30 01:03:19;;;;;;;34.70;15.95;;;;;;;;;;4934855;28;101584;-68
2023/01/30 01:05:45;;;;;;;33.40;15.25;;;;;;;;;;4929232;28;100368;-68
2023/01/30 01:08:12;;;;;;;49.65;15.50;;;;;;;;;;4930481;28;99525;-68
2023/01/30 01:10:38;;;;;;;29.13;14.88;;;;;;;;;;4930492;28;99362;-68
2023/01/30 01:13:05;;;;;;;25.90;13.55;;;;;;;;;;4930620;28;99755;-68
2023/01/30 01:15:32;;;;;;;30.88;14.13;;;;;;;;;;4930616;28;99770;-68
2023/01/30 01:17:58;;;;;;;26.00;12.98;;;;;;;;;;4929706;28;98590;-68
2023/01/30 01:20:25;;;;;;;32.15;13.90;;;;;;;;;;4930376;28;99262;-68
2023/01/30 01:22:52;;;;;;;31.70;13.32;;;;;;;;;;4930371;28;99347;-68
2023/01/30 01:25:19;;;;;;;33.33;13.55;;;;;;;;;;4934275;28;98543;-68
2023/01/30 01:27:46;;;;;;;25.10;13.15;;;;;;;;;;4929663;28;99331;-68
2023/01/30 01:30:12;;;;;;;27.33;12.63;;;;;;;;;;4930757;28;98728;-68
2023/01/30 01:32:39;;;;;;;37.85;14.23;;;;;;;;;;4930715;28;99301;-68
2023/01/30 01:35:05;;;;;;;28.67;13.15;;;;;;;;;;4929283;28;100230;-68
2023/01/30 01:37:31;;;;;;;27.25;12.00;;;;;;;;;;4914031;28;98589;-68
2023/01/30 01:42:43;;;;;;;33.72;12.57;;;;;;;;;;4911326;28;102719;-68
2023/01/30 01:45:12;;;;;;;25.80;11.50;;;;;;;;;;4915151;28;98532;-68
2023/01/30 01:47:41;;;;;;;31.05;12.32;;;;;;;;;;4929977;28;99527;-68
2023/01/30 01:50:15;;;;;;;23.73;11.77;;;;;;;;;;4930550;28;98523;-68
2023/01/30 01:52:42;;;;;;;26.92;11.10;;;;;;;;;;4930654;28;99269;-68
2023/01/30 01:55:08;;;;;;;30.60;11.70;;;;;;;;;;4930030;28;99807;-68
2023/01/30 01:57:40;;;;;;;30.80;12.02;;;;;;;;;;4930365;28;98871;-68
2023/01/30 02:00:10;;;;;;;37.00;12.15;;;;;;;;;;4929734;28;99673;-68
2023/01/30 02:02:37;;;;;;;26.67;10.98;;;;;;;;;;4929695;28;98782;-68
2023/01/30 02:05:05;;;;;;;27.77;10.55;;;;;;;;;;4929040;28;98624;-68
2023/01/30 02:07:34;;;;;;;25.77;10.73;;;;;;;;;;4932580;28;99294;-68
2023/01/30 02:10:00;;;;;;;28.85;11.05;;;;;;;;;;4930161;28;98508;-68
2023/01/30 02:12:26;;;;;;;21.63;8.95;;;;;;;;;;4928954;28;98862;-68
2023/01/30 02:14:55;;;;;;;28.50;10.40;;;;;;;;;;4929144;28;99667;-69
2023/01/30 02:17:22;;;;;;;29.95;9.80;;;;;;;;;;4932381;28;98021;-68
2023/01/30 02:20:01;;;;;;;28.90;9.68;;;;;;;;;;4934368;28;99019;-68
2023/01/30 02:22:27;;;;;;;24.92;9.30;;;;;;;;;;4934111;28;100847;-68
2023/01/30 02:25:11;;;;;;;31.35;9.95;;;;;;;;;;4934222;28;99252;-68
2023/01/30 02:28:07;;;;;;;19.73;9.15;;;;;;;;;;4932953;28;100267;-68
2023/01/30 02:30:54;;;;;;;27.85;9.20;;;;;;;;;;4935650;28;99516;-68
2023/01/30 02:33:21;;;;;;;23.58;9.32;;;;;;;;;;4933622;28;99303;-68
2023/01/30 02:36:10;;;;;;;29.65;10.00;;;;;;;;;;4932373;28;99395;-68
2023/01/30 02:38:39;;;;;;;31.70;8.80;;;;;;;;;;4922992;28;98652;-68
2023/01/30 02:41:26;;;;;;;29.35;9.20;;;;;;;;;;4934033;28;100200;-68
2023/01/30 02:44:09;;;;;;;28.70;9.45;;;;;;;;;;4934341;28;101584;-68
2023/01/30 02:46:55;;;;;;;19.48;7.65;;;;;;;;;;4932341;28;98518;-68
2023/01/30 02:49:25;;;;;;;27.90;8.90;;;;;;;;;;4933602;28;99791;-68
2023/01/30 02:51:51;;;;;;;23.88;8.50;;;;;;;;;;4932731;28;100335;-68
2023/01/30 02:54:17;;;;;;;22.30;8.63;;;;;;;;;;4935715;28;98725;-68
2023/01/30 02:56:51;;;;;;;21.23;8.27;;;;;;;;;;4933147;28;99702;-68
2023/01/30 02:59:24;;;;;;;21.00;8.50;;;;;;;;;;4934166;28;98434;-68
2023/01/30 03:01:50;;;;;;;30.58;8.98;;;;;;;;;;4931961;28;99219;-68
2023/01/30 03:04:34;;;;;;;32.60;7.90;;;;;;;;;;4933275;28;99397;-69
2023/01/30 03:07:21;;;;;;;35.17;8.18;;;;;;;;;;4931357;28;98760;-68
2023/01/30 03:09:55;;;;;;;24.92;7.55;;;;;;;;;;4903040;28;99300;-68
2023/01/30 03:12:30;;;;;;;29.25;7.63;;;;;;;;;;4933045;28;99288;-68
2023/01/30 03:14:59;;;;;;;36.38;7.55;;;;;;;;;;4933195;28;98558;-68
2023/01/30 03:17:26;;;;;;;27.67;7.72;;;;;;;;;;4930938;28;99625;-68
2023/01/30 03:19:53;;;;;;;19.08;7.07;;;;;;;;;;4913917;28;98584;-68
2023/01/30 03:22:20;;;;;;;20.38;7.15;;;;;;;;;;4912936;28;99192;-68
2023/01/30 03:24:48;;;;;;;21.48;7.75;;;;;;;;;;4912519;28;100810;-68
2023/01/30 03:27:14;;;;;;;22.98;7.20;;;;;;;;;;4913588;28;98685;-68
2023/01/30 03:29:40;;;;;;;23.05;6.63;;;;;;;;;;4913289;28;99215;-68
2023/01/30 03:32:07;;;;;;;23.52;6.93;;;;;;;;;;4913720;28;100617;-68
2023/01/30 03:34:33;;;;;;;19.92;6.90;;;;;;;;;;4914270;28;97807;-68
2023/01/30 03:36:59;;;;;;;23.40;6.63;;;;;;;;;;4914073;28;98578;-68
2023/01/30 03:39:26;;;;;;;17.38;5.93;;;;;;;;;;4916643;28;99736;-68
2023/01/30 03:41:52;;;;;;;17.60;6.13;;;;;;;;;;4917219;28;99472;-68
2023/01/30 03:44:19;;;;;;;25.77;7.00;;;;;;;;;;4932485;28;99816;-68
2023/01/30 03:46:45;;;;;;;25.10;6.13;;;;;;;;;;4932758;28;98567;-68
2023/01/30 03:49:12;;;;;;;22.00;6.70;;;;;;;;;;4932924;28;99670;-67
2023/01/30 03:51:38;;;;;;;14.80;5.72;;;;;;;;;;4932589;28;99511;-68
2023/01/30 03:54:04;;;;;;;25.17;6.13;;;;;;;;;;4932755;28;98532;-67
2023/01/30 03:56:31;;;;;;;23.50;6.30;;;;;;;;;;4932884;28;99188;-68
2023/01/30 03:58:57;;;;;;;19.05;5.60;;;;;;;;;;4934744;28;98698;-67
2023/01/30 04:01:23;;;;;;;20.92;5.65;;;;;;;;;;4931537;28;98532;-68
2023/01/30 04:03:50;;;;;;;36.35;6.70;;;;;;;;;;4932368;28;98777;-67
2023/01/30 04:06:16;;;;;;;17.73;4.93;;;;;;;;;;4931516;28;99580;-67
2023/01/30 04:08:42;;;;;;;34.90;7.57;;;;;;;;;;4932728;28;99121;-67
2023/01/30 04:11:09;;;;;;;23.52;5.45;;;;;;;;;;4930790;28;99998;-67
2023/01/30 04:13:35;;;;;;;21.70;5.35;;;;;;;;;;4932314;28;98565;-67
2023/01/30 04:16:16;;;;;;;17.88;4.45;;;;;;;;;;4932888;28;100540;-68
2023/01/30 04:18:42;;;;;;;19.00;4.45;;;;;;;;;;4932258;28;100102;-67
2023/01/30 04:21:08;;;;;;;22.52;4.90;;;;;;;;;;4935500;28;98630;-68
2023/01/30 04:23:35;;;;;;;22.13;4.40;;;;;;;;;;4932266;28;97825;-68
2023/01/30 04:26:01;;;;;;;29.90;5.80;;;;;;;;;;4931926;28;98571;-68
2023/01/30 04:28:27;;;;;;;26.00;4.55;;;;;;;;;;4932297;28;99567;-68
2023/01/30 04:30:54;;;;;;;28.15;4.97;;;;;;;;;;4931403;28;100768;-67
2023/01/30 04:33:20;;;;;;;24.42;4.75;;;;;;;;;;4930799;28;98817;-67
2023/01/30 04:35:51;;;;;;;17.75;3.88;;;;;;;;;;4931498;28;101301;-67
2023/01/30 04:38:17;;;;;;;14.63;3.53;;;;;;;;;;4931648;28;99530;-67
2023/01/30 04:40:50;;;;;;;20.55;4.38;;;;;;;;;;4931954;28;98560;-67
2023/01/30 04:43:17;;;;;;;18.88;3.83;;;;;;;;;;4934777;28;99763;-68
2023/01/30 04:45:44;;;;;;;15.73;3.25;;;;;;;;;;4932180;28;98473;-68
2023/01/30 04:48:11;;;;;;;19.45;3.97;;;;;;;;;;4931123;28;99195;-67
2023/01/30 04:50:37;;;;;;;24.35;3.85;;;;;;;;;;4931582;28;99434;-67
2023/01/30 04:53:04;;;;;;;29.55;4.47;;;;;;;;;;4931738;28;98635;-67
2023/01/30 04:55:30;;;;;;;15.25;3.17;;;;;;;;;;4931502;28;99358;-67
2023/01/30 04:57:57;;;;;;;20.92;3.83;;;;;;;;;;4931363;28;99794;-68
2023/01/30 05:00:23;;;;;;;31.73;3.88;;;;;;;;;;4932400;28;98454;-67
2023/01/30 05:02:50;;;;;;;27.75;3.92;;;;;;;;;;4931840;28;99667;-67
2023/01/30 05:05:16;;;;;;;23.70;3.50;;;;;;;;;;4934464;28;100026;-68
2023/01/30 05:07:43;;;;;;;18.98;3.60;;;;;;;;;;4931166;28;99182;-68
2023/01/30 05:10:10;;;;;;;17.60;3.25;;;;;;;;;;4929842;28;99486;-67
2023/01/30 05:12:36;;;;;;;14.55;2.33;;;;;;;;;;4930569;28;97857;-68
2023/01/30 05:15:02;;;;;;;15.32;3.22;;;;;;;;;;4931987;28;101825;-67
2023/01/30 05:17:29;;;;;;;29.33;4.00;;;;;;;;;;4931322;28;99652;-67
2023/01/30 05:19:55;;;;;;;15.70;2.78;;;;;;;;;;4931117;28;99570;-67
2023/01/30 05:22:21;;;;;;;17.20;3.03;;;;;;;;;;4931661;28;100316;-67
2023/01/30 05:24:48;;;;;;;17.00;3.15;;;;;;;;;;4930318;28;99884;-67
2023/01/30 05:27:14;;;;;;;14.60;2.92;;;;;;;;;;4934710;28;98561;-67
2023/01/30 05:29:40;;;;;;;14.25;2.28;;;;;;;;;;4930916;28;99900;-67
2023/01/30 05:32:08;;;;;;;14.38;2.47;;;;;;;;;;4931882;28;98482;-67
2023/01/30 05:34:34;;;;;;;18.48;3.35;;;;;;;;;;4930872;28;99179;-67
2023/01/30 05:37:01;;;;;;;14.75;2.88;;;;;;;;;;4926178;28;98902;-67
2023/01/30 05:39:27;;;;;;;20.02;3.00;;;;;;;;;;4915886;28;98942;-67
2023/01/30 05:41:53;;;;;;;20.85;3.20;;;;;;;;;;4911868;28;99213;-67
2023/01/30 05:44:19;;;;;;;18.17;2.92;;;;;;;;;;4910878;28;100747;-67
2023/01/30 05:46:46;;;;;;;17.05;3.17;;;;;;;;;;4925102;28;98689;-68
2023/01/30 05:49:12;;;;;;;23.55;3.35;;;;;;;;;;4932718;28;99411;-67
2023/01/30 05:51:38;;;;;;;25.70;3.72;;;;;;;;;;4934310;28;98466;-68
2023/01/30 05:54:05;;;;;;;27.17;3.75;;;;;;;;;;4937394;28;99219;-68
2023/01/30 05:56:32;;;;;;;20.88;3.33;;;;;;;;;;4937015;28;99599;-67
2023/01/30 05:58:59;;;;;;;21.70;3.10;;;;;;;;;;4937953;28;98455;-67
2023/01/30 06:01:26;;;;;;;23.00;3.65;;;;;;;;;;4937833;28;99614;-68
2023/01/30 06:03:52;;;;;;;14.02;3.42;;;;;;;;;;4936729;28;99492;-67
2023/01/30 06:06:19;;;;;;;24.73;4.45;;;;;;;;;;4936294;28;98913;-67
2023/01/30 06:08:45;;;;;;;18.70;3.55;;;;;;;;;;4939668;28;99232;-67
2023/01/30 06:11:12;;;;;;;25.80;3.83;;;;;;;;;;4937345;28;98561;-68
2023/01/30 06:13:39;;;;;;;24.52;3.22;;;;;;;;;;4931632;28;99279;-67
2023/01/30 06:16:06;;;;;;;37.42;4.45;;;;;;;;;;4927219;28;100054;-67
2023/01/30 06:18:32;;;;;;;22.85;3.63;;;;;;;;;;4937349;28;98599;-67
2023/01/30 06:20:59;;;;;;;25.08;3.42;;;;;;;;;;4937181;28;99508;-67
2023/01/30 06:23:25;;;;;;;20.80;4.25;;;;;;;;;;4937019;28;100458;-67
2023/01/30 06:25:52;;;;;;;16.48;3.58;;;;;;;;;;4937643;28;98530;-67
2023/01/30 06:28:18;;;;;;;25.08;3.55;;;;;;;;;;4936373;28;99248;-67
2023/01/30 06:30:45;;;;;;;34.30;4.43;;;;;;;;;;4938508;28;99679;-67
2023/01/30 06:33:11;;;;;;;23.90;3.15;;;;;;;;;;4935205;28;99733;-67
2023/01/30 06:35:37;;;;;;;24.65;3.30;;;;;;;;;;4936659;28;100100;-67
2023/01/30 06:38:04;;;;;;;27.27;3.63;;;;;;;;;;4937106;28;98503;-67
2023/01/30 06:40:30;;;;;;;20.58;2.90;;;;;;;;;;4935629;28;99459;-67
2023/01/30 06:42:56;;;;;;;26.70;3.50;;;;;;;;;;4936478;28;99834;-67
2023/01/30 06:45:23;;;;;;;34.88;4.13;;;;;;;;;;4936826;28;98625;-67
2023/01/30 06:47:50;;;;;;;31.77;5.05;;;;;;;;;;4937052;28;99510;-68
2023/01/30 06:50:18;;;;;;;24.02;4.00;;;;;;;;;;4937135;28;100042;-68
2023/01/30 06:52:45;;;;;;;24.55;3.88;;;;;;;;;;4939349;28;98549;-68
2023/01/30 06:55:13;;;;;;;35.00;3.90;;;;;;;;;;4935488;28;99668;-67
2023/01/30 06:57:39;;;;;;;24.52;3.72;;;;;;;;;;4936599;28;99295;-67
2023/01/30 07:00:06;;;;;;;28.08;4.78;;;;;;;;;;4936673;28;101366;-68
2023/01/30 07:02:34;;;;;;;31.65;4.70;;;;;;;;;;4935502;28;99815;-67
2023/01/30 07:05:04;;;;;;;25.05;4.10;;;;;;;;;;4933837;28;98546;-67
2023/01/30 07:07:30;;;;;;;47.60;5.23;;;;;;;;;;4933192;28;99252;-68
2023/01/30 07:09:57;;;;;;;28.95;4.05;;;;;;;;;;4933086;28;99998;-67
2023/01/30 07:12:33;;;;;;;32.10;4.60;;;;;;;;;;4933457;28;98566;-67
2023/01/30 07:15:00;;;;;;;35.20;4.97;;;;;;;;;;4935294;28;99603;-68
2023/01/30 07:17:26;;;;;;;30.48;4.30;;;;;;;;;;4932114;28;98522;-67
2023/01/30 07:19:52;;;;;;;25.95;3.90;;;;;;;;;;4933374;28;99139;-67
2023/01/30 07:22:19;;;;;;;26.10;4.25;;;;;;;;;;4932856;28;100202;-68
2023/01/30 07:24:45;;;;;;;30.63;4.18;;;;;;;;;;4933046;28;98833;-67
2023/01/30 07:27:12;;;;;;;30.90;4.38;;;;;;;;;;4932942;28;99820;-68
2023/01/30 07:29:38;;;;;;;28.90;3.65;;;;;;;;;;4932717;28;99587;-68
2023/01/30 07:32:05;;;;;;;32.40;5.45;;;;;;;;;;4932188;28;98529;-68
2023/01/30 07:34:32;;;;;;;30.95;4.55;;;;;;;;;;4933115;28;99692;-67
2023/01/30 07:36:58;;;;;;;24.25;3.40;;;;;;;;;;4936088;28;99910;-67
2023/01/30 07:39:24;;;;;;;35.22;4.53;;;;;;;;;;4933582;28;99377;-67
2023/01/30 07:41:51;;;;;;;28.63;4.35;;;;;;;;;;4932550;28;100614;-67
2023/01/30 07:44:17;;;;;;;35.58;4.13;;;;;;;;;;4932932;28;98539;-67
2023/01/30 07:46:43;;;;;;;28.85;4.45;;;;;;;;;;4932410;28;99343;-67
2023/01/30 07:49:10;;;;;;;30.33;4.55;;;;;;;;;;4931286;28;99982;-67
2023/01/30 07:51:36;;;;;;;30.35;4.10;;;;;;;;;;4932853;28;98672;-68
2023/01/30 07:54:03;;;;;;;32.72;3.90;;;;;;;;;;4933219;28;99549;-67
2023/01/30 07:56:29;;;;;;;25.08;3.75;;;;;;;;;;4932331;28;99839;-67
2023/01/30 07:58:55;;;;;;;28.50;4.75;;;;;;;;;;4935928;28;98472;-67
2023/01/30 08:01:22;;;;;;;33.47;4.97;;;;;;;;;;4932597;28;99716;-67
2023/01/30 08:03:49;;;;;;;32.63;4.40;;;;;;;;;;4933236;28;97857;-68
2023/01/30 08:06:15;;;;;;;28.60;4.20;;;;;;;;;;4932151;28;99055;-67
2023/01/30 08:08:42;;;;;;;23.08;4.32;;;;;;;;;;4930733;28;99587;-67
2023/01/30 08:11:08;;;;;;;40.03;4.97;;;;;;;;;;4932016;28;99283;-68
2023/01/30 08:13:35;;;;;;;38.55;4.72;;;;;;;;;;4932291;28;99971;-68
2023/01/30 08:16:02;;;;;;;25.52;3.63;;;;;;;;;;4930364;28;99617;-67
2023/01/30 08:18:29;;;;;;;22.33;3.40;;;;;;;;;;4934669;28;98536;-67
2023/01/30 08:20:56;;;;;;;25.38;4.43;;;;;;;;;;4931864;28;99687;-67
2023/01/30 08:23:22;;;;;;;24.80;4.63;;;;;;;;;;4932071;28;98639;-67
2023/01/30 08:25:48;;;;;;;28.27;4.40;;;;;;;;;;4932384;28;99666;-67
2023/01/30 08:28:15;;;;;;;33.15;3.35;;;;;;;;;;4931237;28;98772;-67
2023/01/30 08:30:42;;;;;;;25.23;3.90;;;;;;;;;;4930924;28;98589;-68
2023/01/30 08:33:08;;;;;;;28.67;4.15;;;;;;;;;;4932605;28;100415;-67
2023/01/30 08:35:34;;;;;;;24.00;3.60;;;;;;;;;;4930849;28;100381;-67
2023/01/30 08:38:02;;;;;;;25.58;4.22;;;;;;;;;;4923790;28;98719;-68
2023/01/30 08:40:28;;;;;;;32.53;5.28;;;;;;;;;;4916127;28;100434;-67
2023/01/30 08:42:54;;;;;;;26.67;4.10;;;;;;;;;;4912409;28;98998;-68
2023/01/30 08:45:21;;;;;;;32.58;4.65;;;;;;;;;;4916006;28;99119;-68
2023/01/30 08:47:47;;;;;;;28.92;4.15;;;;;;;;;;4931526;28;99618;-67
2023/01/30 08:50:13;;;;;;;30.50;4.43;;;;;;;;;;4932375;28;98578;-68
2023/01/30 08:52:40;;;;;;;30.55;4.78;;;;;;;;;;4932255;28;99437;-68
2023/01/30 08:55:06;;;;;;;30.05;4.93;;;;;;;;;;4931322;28;99582;-68
2023/01/30 08:57:33;;;;;;;30.92;4.43;;;;;;;;;;4932042;28;98915;-67
2023/01/30 08:59:59;;;;;;;28.90;4.75;;;;;;;;;;4931126;28;99270;-68
2023/01/30 09:02:25;;;;;;;26.58;4.13;;;;;;;;;;4934461;28;99537;-67
2023/01/30 09:04:52;;;;;;;25.45;3.22;;;;;;;;;;4931636;28;99395;-67
2023/01/30 09:07:18;;;;;;;28.65;4.25;;;;;;;;;;4930682;28;99812;-67
2023/01/30 09:09:44;;;;;;;32.90;4.78;;;;;;;;;;4932204;28;98561;-68
2023/01/30 09:12:11;;;;;;;22.55;3.60;;;;;;;;;;4930468;28;99214;-68
2023/01/30 09:14:37;;;;;;;31.75;4.75;;;;;;;;;;4917373;28;98735;-67
2023/01/30 09:17:03;;;;;;;32.80;4.50;;;;;;;;;;4928207;28;98683;-68
2023/01/30 09:19:30;;;;;;;38.13;4.75;;;;;;;;;;4931628;28;99172;-67
2023/01/30 09:21:56;;;;;;;27.98;3.47;;;;;;;;;;4929328;28;99614;-68
2023/01/30 09:24:26;;;;;;;23.73;3.55;;;;;;;;;;4934392;28;99272;-68
2023/01/30 09:26:53;;;;;;;30.70;4.53;;;;;;;;;;4930098;28;99850;-67
2023/01/30 09:29:19;;;;;;;21.42;3.17;;;;;;;;;;4930534;28;98597;-67
2023/01/30 09:31:46;;;;;;;44.55;4.38;;;;;;;;;;4931298;28;98625;-67
2023/01/30 09:34:12;;;;;;;32.67;4.90;;;;;;;;;;4930863;28;99568;-67
2023/01/30 09:36:39;;;;;;;38.13;4.65;;;;;;;;;;4931295;28;98520;-67
2023/01/30 09:39:06;;;;;;;26.55;4.03;;;;;;;;;;4930016;28;99152;-67
2023/01/30 09:41:41;;;;;;;28.20;4.13;;;;;;;;;;4929944;28;99050;-68
2023/01/30 09:44:08;;;;;;;26.45;4.45;;;;;;;;;;4931611;28;98597;-67
2023/01/30 09:46:43;;;;;;;27.38;3.85;;;;;;;;;;4932563;28;99223;-67
2023/01/30 09:49:17;;;;;;;38.03;4.63;;;;;;;;;;4930950;28;99220;-68
2023/01/30 09:51:55;;;;;;;26.95;3.80;;;;;;;;;;4931174;28;98965;-67
2023/01/30 09:54:27;;;;;;;27.42;3.83;;;;;;;;;;4930871;28;100181;-67
2023/01/30 09:57:12;;;;;;;21.52;3.67;;;;;;;;;;4931246;28;98454;-67
2023/01/30 09:59:59;;;;;;;20.92;3.50;;;;;;;;;;4931117;28;99182;-67
2023/01/30 10:02:34;;;;;;;31.65;3.30;;;;;;;;;;4930677;28;99832;-68
2023/01/30 10:05:02;;;;;;;38.42;5.00;;;;;;;;;;4931509;28;98824;-67
2023/01/30 10:07:28;;;;;;;25.30;3.20;;;;;;;;;;4933659;28;99395;-67
2023/01/30 10:10:16;;;;;;;35.60;4.65;;;;;;;;;;4931091;28;98606;-68
2023/01/30 10:12:49;;;;;;;25.65;3.90;;;;;;;;;;4929649;28;99229;-68
2023/01/30 10:15:33;;;;;;;26.73;5.03;;;;;;;;;;4930049;28;100779;-68
2023/01/30 10:18:12;;;;;;;25.75;2.80;;;;;;;;;;4929181;28;98589;-67
2023/01/30 10:20:44;;;;;;;27.23;3.40;;;;;;;;;;4931114;28;99209;-68
2023/01/30 10:23:26;;;;;;;19.98;3.63;;;;;;;;;;4930368;28;99500;-67
2023/01/30 10:25:54;;;;;;;22.77;3.80;;;;;;;;;;4930844;28;98524;-68
2023/01/30 10:28:31;;;;;;;26.38;4.00;;;;;;;;;;4930345;28;99250;-68
2023/01/30 10:31:03;;;;;;;30.63;3.75;;;;;;;;;;4932856;28;99481;-68
2023/01/30 10:33:32;;;;;;;36.72;4.15;;;;;;;;;;4929717;28;99028;-68
2023/01/30 10:36:02;;;;;;;40.25;4.05;;;;;;;;;;4930414;28;99650;-68
2023/01/30 10:38:32;;;;;;;21.48;4.03;;;;;;;;;;4932897;28;99081;-67
2023/01/30 10:41:14;;;;;;;26.40;4.27;;;;;;;;;;4933529;28;99303;-67
2023/01/30 10:44:04;;;;;;;25.45;3.92;;;;;;;;;;4932444;28;101340;-68
2023/01/30 10:46:50;;;;;;;24.35;4.15;;;;;;;;;;4925902;28;98554;-68
2023/01/30 10:49:19;;;;;;;32.13;4.55;;;;;;;;;;4933167;28;99246;-68
2023/01/30 10:52:02;;;;;;;28.08;4.25;;;;;;;;;;4933317;28;99925;-67
2023/01/30 10:54:35;;;;;;;23.33;4.28;;;;;;;;;;4937136;28;98596;-67
2023/01/30 10:57:02;;;;;;;32.45;3.92;;;;;;;;;;4933425;28;99563;-68
2023/01/30 10:59:31;;;;;;;44.47;6.10;;;;;;;;;;4934522;28;97801;-67
2023/01/30 11:01:58;;;;;;;39.47;4.25;;;;;;;;;;4934016;28;99071;-67
2023/01/30 11:04:30;;;;;;;23.95;3.78;;;;;;;;;;4932118;28;99843;-67
2023/01/30 11:06:58;;;;;;;31.85;5.60;;;;;;;;;;4931545;28;99268;-68
2023/01/30 11:09:36;;;;;;;28.40;4.65;;;;;;;;;;4933834;28;99961;-67
2023/01/30 11:12:03;;;;;;;31.25;4.75;;;;;;;;;;4933025;28;99544;-68
2023/01/30 11:14:48;;;;;;;15.00;3.45;;;;;;;;;;4933477;28;98623;-67
2023/01/30 11:17:15;;;;;;;19.77;3.92;;;;;;;;;;4936311;28;99699;-68
2023/01/30 11:19:41;;;;;;;23.42;4.05;;;;;;;;;;4933355;28;98551;-67
2023/01/30 11:22:13;;;;;;;24.27;3.72;;;;;;;;;;4932351;28;100335;-67
2023/01/30 11:24:40;;;;;;;26.08;4.13;;;;;;;;;;4931833;28;98656;-67
2023/01/30 11:27:11;;;;;;;20.52;4.00;;;;;;;;;;4933181;28;98567;-67
2023/01/30 11:29:37;;;;;;;;;;;;;;;;;;4933513;28;99534;-66
2023/01/30 11:32:05;;;;;;;26.35;4.90;;;;;;;;;;4933132;28;129579;-66
2023/01/30 11:34:31;;;;;;;36.25;4.72;;;;;;;;;;4932233;28;98537;-66
2023/01/30 11:37:14;;;;;;;26.73;4.13;;;;;;;;;;4929554;28;99576;-67
2023/01/30 11:39:50;;;;;;;26.60;4.85;;;;;;;;;;4918307;28;99968;-66
2023/01/30 11:42:18;;;;;;;31.77;4.53;;;;;;;;;;4913625;28;99626;-67
2023/01/30 11:44:44;;;;;;;26.85;5.47;;;;;;;;;;4913222;28;100144;-66
2023/01/30 11:47:28;;;;;;;26.05;4.00;;;;;;;;;;4931460;28;98518;-67
2023/01/30 11:49:55;;;;;;;19.65;3.72;;;;;;;;;;4932517;28;99857;-67
2023/01/30 11:52:43;;;;;;;26.92;4.57;;;;;;;;;;4931494;28;99177;-67
2023/01/30 11:55:12;;;;;;;26.38;4.43;;;;;;;;;;4932944;28;98496;-67
2023/01/30 11:57:43;;;;;;;24.10;4.15;;;;;;;;;;4932270;28;99280;-67
2023/01/30 12:00:09;;;;;;;;;;;;;;;;;;4931802;28;100757;-67
2023/01/30 12:02:36;;;;;;;24.25;5.18;;;;;;;;;;4936642;28;118377;-67
2023/01/30 12:05:16;;;;;;;21.73;4.15;;;;;;;;;;4932324;28;99513;-67
2023/01/30 12:07:45;;;;;;;23.05;4.47;;;;;;;;;;4932777;28;98553;-67
2023/01/30 12:10:24;;;;;;;29.38;4.90;;;;;;;;;;4932422;28;99467;-67
2023/01/30 12:12:55;;;;;;;26.88;5.10;;;;;;;;;;4932142;28;99520;-67
2023/01/30 12:15:26;;;;;;;26.42;4.60;;;;;;;;;;4916994;28;97841;-66
2023/01/30 12:17:55;;;;;;;30.60;5.13;;;;;;;;;;4932603;28;98843;-69
2023/01/30 12:20:44;;;;;;;35.22;5.43;;;;;;;;;;4932108;28;99529;-67
2023/01/30 12:23:17;;;;;;;26.38;4.70;;;;;;;;;;4933728;28;99428;-67
2023/01/30 12:25:44;;;;;;;31.02;5.18;;;;;;;;;;4932501;28;99603;-67
2023/01/30 12:28:19;;;;;;;33.63;5.55;;;;;;;;;;4932211;28;98559;-66
2023/01/30 12:30:48;;;;;;;33.13;4.63;;;;;;;;;;4931084;28;99424;-67
2023/01/30 12:33:15;;;;;;;34.83;5.67;;;;;;;;;;4931901;28;99505;-67
2023/01/30 12:35:59;;;;;;;28.80;5.38;;;;;;;;;;4930887;28;98560;-67
2023/01/30 12:38:26;;;;;;;27.70;5.00;;;;;;;;;;4932089;28;99454;-66
2023/01/30 12:41:04;;;;;;;26.73;4.38;;;;;;;;;;4932079;28;99225;-68
2023/01/30 12:43:33;;;;;;;30.90;4.53;;;;;;;;;;4931871;28;98552;-66
2023/01/30 12:46:02;;;;;;;36.95;4.93;;;;;;;;;;4934788;28;99453;-66
2023/01/30 12:48:47;;;;;;;29.75;5.53;;;;;;;;;;4931562;28;99355;-67
2023/01/30 12:51:36;;;;;;;22.08;4.18;;;;;;;;;;4932411;28;99866;-67
2023/01/30 12:54:02;;;;;;;32.10;4.43;;;;;;;;;;4931845;28;99350;-66
2023/01/30 12:56:28;;;;;;;23.40;4.78;;;;;;;;;;4931891;28;99133;-69
2023/01/30 12:59:01;;;;;;;34.72;5.78;;;;;;;;;;4931860;28;99233;-69
2023/01/30 13:01:34;;;;;;;34.97;4.90;;;;;;;;;;4931667;28;99542;-67
2023/01/30 13:04:01;;;;;;;24.70;4.25;;;;;;;;;;4931738;28;98523;-67
2023/01/30 13:06:39;;;;;;;25.50;4.18;;;;;;;;;;4932044;28;100591;-66
2023/01/30 13:09:08;;;;;;;22.25;4.05;;;;;;;;;;4934764;28;99664;-66
2023/01/30 13:11:37;;;;;;;31.65;5.70;;;;;;;;;;4931750;28;99216;-66
2023/01/30 13:14:14;;;;;;;25.58;3.90;;;;;;;;;;4930797;28;100338;-66
2023/01/30 13:16:56;;;;;;;33.83;5.35;;;;;;;;;;4931714;28;98821;-67
2023/01/30 13:19:30;;;;;;;33.95;5.53;;;;;;;;;;4931202;28;99622;-67
2023/01/30 13:22:25;;;;;;;29.52;4.30;;;;;;;;;;4931915;28;102278;-67
2023/01/30 13:24:51;;;;;;;26.33;3.92;;;;;;;;;;4931310;28;98521;-66
2023/01/30 13:27:18;;;;;;;28.25;4.75;;;;;;;;;;4931719;28;99204;-67
2023/01/30 13:29:46;;;;;;;23.83;4.28;;;;;;;;;;4930658;28;99216;-67
2023/01/30 13:32:18;;;;;;;26.52;4.28;;;;;;;;;;4935177;28;97890;-67
2023/01/30 13:34:46;;;;;;;35.58;5.07;;;;;;;;;;4931227;28;99999;-67
2023/01/30 13:37:14;;;;;;;36.75;4.60;;;;;;;;;;4917610;28;99638;-66
2023/01/30 13:39:51;;;;;;;32.30;4.28;;;;;;;;;;4911373;28;99528;-67
2023/01/30 13:42:23;;;;;;;31.40;4.35;;;;;;;;;;4911489;28;99527;-67
2023/01/30 13:44:50;;;;;;;25.00;4.07;;;;;;;;;;4911047;28;98526;-67
2023/01/30 13:47:16;;;;;;;19.00;3.42;;;;;;;;;;4930697;28;99202;-67
2023/01/30 13:49:46;;;;;;;26.33;4.55;;;;;;;;;;4930954;28;99611;-66
2023/01/30 13:52:13;;;;;;;29.95;4.95;;;;;;;;;;4931462;28;98824;-67
2023/01/30 13:54:43;;;;;;;36.55;3.85;;;;;;;;;;4932376;28;99395;-66
2023/01/30 13:57:19;;;;;;;24.20;3.17;;;;;;;;;;4931961;28;97836;-66
2023/01/30 14:00:04;;;;;;;26.63;4.88;;;;;;;;;;4930791;28;98575;-67
2023/01/30 14:02:30;;;;;;;29.33;4.35;;;;;;;;;;4929239;28;99492;-66
2023/01/30 14:04:57;;;;;;;14.98;4.20;;;;;;;;;;4930207;28;99304;-67
2023/01/30 14:07:26;;;;;;;28.83;4.15;;;;;;;;;;4930747;28;100128;-66
2023/01/30 14:10:07;;;;;;;20.73;3.72;;;;;;;;;;4930320;28;99885;-67
2023/01/30 14:12:38;;;;;;;23.92;3.83;;;;;;;;;;4932494;28;98546;-66
2023/01/30 14:15:05;;;;;;;23.33;3.83;;;;;;;;;;4934299;28;100253;-67
2023/01/30 14:17:31;;;;;;;34.22;4.82;;;;;;;;;;4936762;28;99832;-67
2023/01/30 14:19:59;;;;;;;23.08;4.20;;;;;;;;;;4933978;28;99494;-66
2023/01/30 14:22:44;;;;;;;18.08;3.33;;;;;;;;;;4933506;28;99908;-66
2023/01/30 14:25:28;;;;;;;30.98;4.55;;;;;;;;;;4934210;28;98560;-66
2023/01/30 14:27:58;;;;;;;18.65;4.22;;;;;;;;;;4934078;28;99430;-66
2023/01/30 14:30:30;;;;;;;18.98;3.13;;;;;;;;;;4933378;28;100739;-66
2023/01/30 14:33:00;;;;;;;32.70;5.55;;;;;;;;;;4934002;28;98580;-67
2023/01/30 14:35:30;;;;;;;32.38;5.25;;;;;;;;;;4934277;28;99266;-66
2023/01/30 14:38:12;;;;;;;30.20;5.75;;;;;;;;;;4931994;28;99489;-66
2023/01/30 14:40:42;;;;;;;35.78;4.32;;;;;;;;;;4914860;28;99419;-66
2023/01/30 14:43:11;;;;;;;27.00;4.18;;;;;;;;;;4914656;28;99813;-66
2023/01/30 14:45:55;;;;;;;28.67;4.25;;;;;;;;;;4920243;28;98554;-66
2023/01/30 14:48:28;;;;;;;39.47;4.15;;;;;;;;;;4934199;28;99329;-66